createdAt,value
2018-07-23T00:00:02.428Z,5.20
2018-07-23T00:02:31.000Z,6.07
2018-07-23T00:04:59.521Z,4.60
2018-07-23T00:07:28.312Z,4.87
2018-07-23T00:09:57.069Z,4.73
2018-07-23T00:12:25.584Z,4.37
2018-07-23T00:14:54.085Z,4.30
2018-07-23T00:17:22.647Z,4.60
2018-07-23T00:19:51.096Z,5.97
2018-07-23T00:22:19.308Z,4.10
2018-07-23T00:24:47.553Z,4.90
2018-07-23T00:27:15.973Z,6.73
2018-07-23T00:29:44.114Z,4.90
2018-07-23T00:32:12.617Z,6.20
2018-07-23T00:34:40.953Z,4.53
2018-07-23T00:37:09.385Z,4.43
2018-07-23T00:39:37.924Z,6.47
2018-07-23T00:42:06.310Z,4.50
2018-07-23T00:44:34.721Z,4.10
2018-07-23T00:47:03.542Z,5.33
2018-07-23T00:49:32.236Z,5.43
2018-07-23T00:52:02.373Z,4.57
2018-07-23T00:54:30.759Z,4.43
2018-07-23T00:56:59.244Z,4.20
2018-07-23T00:59:28.053Z,4.57
2018-07-23T01:01:56.809Z,5.87
2018-07-23T01:04:25.675Z,4.70
2018-07-23T01:06:54.149Z,4.90
2018-07-23T01:09:22.824Z,4.77
2018-07-23T01:11:50.887Z,4.10
2018-07-23T01:14:19.483Z,4.13
2018-07-23T01:16:47.688Z,5.40
2018-07-23T01:19:16.260Z,5.67
2018-07-23T01:21:44.909Z,5.40
2018-07-23T01:24:13.272Z,6.07
2018-07-23T01:26:41.968Z,5.87
2018-07-23T01:29:10.440Z,6.27
2018-07-23T01:31:38.997Z,4.90
2018-07-23T01:34:07.347Z,4.97
2018-07-23T01:36:35.508Z,4.43
2018-07-23T01:39:05.900Z,5.43
2018-07-23T01:41:34.448Z,5.30
2018-07-23T01:44:02.827Z,5.50
2018-07-23T01:46:31.418Z,5.27
2018-07-23T01:48:59.843Z,6.80
2018-07-23T01:51:27.957Z,5.93
2018-07-23T01:53:56.338Z,5.37
2018-07-23T01:56:25.540Z,7.57
2018-07-23T01:58:53.945Z,5.63
2018-07-23T02:01:22.341Z,5.20
2018-07-23T02:03:50.888Z,5.40
2018-07-23T02:06:19.341Z,7.63
2018-07-23T02:08:47.898Z,5.77
2018-07-23T02:11:16.369Z,6.03
2018-07-23T02:13:44.895Z,6.00
2018-07-23T02:16:13.404Z,5.83
2018-07-23T02:18:41.846Z,6.07
2018-07-23T02:21:10.294Z,5.53
2018-07-23T02:23:39.072Z,6.57
2018-07-23T02:26:07.619Z,8.37
2018-07-23T02:28:36.252Z,7.97
2018-07-23T02:31:04.577Z,6.77
2018-07-23T02:33:33.020Z,8.50
2018-07-23T02:36:01.663Z,8.30
2018-07-23T02:38:30.659Z,7.17
2018-07-23T02:40:59.495Z,8.37
2018-07-23T02:43:28.025Z,8.80
2018-07-23T02:45:56.628Z,9.70
2018-07-23T02:48:25.410Z,8.40
2018-07-23T02:50:54.042Z,8.10
2018-07-23T02:53:22.676Z,8.00
2018-07-23T02:55:51.218Z,8.47
2018-07-23T02:58:19.643Z,9.63
2018-07-23T03:00:48.076Z,10.90
2018-07-23T03:03:16.860Z,10.27
2018-07-23T03:05:45.307Z,10.20
2018-07-23T03:08:13.589Z,8.70
2018-07-23T03:10:42.142Z,9.07
2018-07-23T03:13:10.295Z,9.07
2018-07-23T03:15:38.685Z,9.07
2018-07-23T03:18:07.279Z,12.33
2018-07-23T03:20:35.782Z,9.10
2018-07-23T03:23:04.688Z,8.67
2018-07-23T03:25:33.399Z,8.50
2018-07-23T03:28:02.044Z,8.83
2018-07-23T03:30:30.540Z,9.30
2018-07-23T03:32:59.090Z,9.63
2018-07-23T03:35:27.587Z,9.23
2018-07-23T03:37:56.219Z,9.17
2018-07-23T03:40:24.787Z,8.67
2018-07-23T03:42:53.185Z,8.70
2018-07-23T03:45:23.036Z,10.53
2018-07-23T03:47:51.579Z,9.10
2018-07-23T03:50:20.176Z,9.00
2018-07-23T03:52:49.069Z,8.33
2018-07-23T03:55:17.651Z,8.73
2018-07-23T03:57:46.162Z,8.97
2018-07-23T04:00:15.401Z,8.63
2018-07-23T04:02:44.263Z,9.80
2018-07-23T04:05:12.792Z,9.03
2018-07-23T04:07:41.135Z,9.37
2018-07-23T04:10:09.607Z,8.50
2018-07-23T04:12:38.394Z,8.87
2018-07-23T04:15:06.564Z,11.83
2018-07-23T04:17:35.118Z,8.63
2018-07-23T04:20:04.051Z,9.00
2018-07-23T04:22:32.573Z,10.33
2018-07-23T04:25:01.532Z,7.60
2018-07-23T04:27:30.130Z,8.77
2018-07-23T04:29:58.581Z,9.97
2018-07-23T04:32:26.980Z,7.53
2018-07-23T04:34:55.670Z,8.87
2018-07-23T04:37:24.505Z,10.73
2018-07-23T04:39:52.993Z,8.53
2018-07-23T04:42:21.514Z,9.17
2018-07-23T04:44:50.307Z,9.20
2018-07-23T04:47:18.955Z,8.87
2018-07-23T04:49:47.578Z,10.67
2018-07-23T04:52:16.202Z,9.83
2018-07-23T04:54:45.145Z,8.23
2018-07-23T04:57:13.803Z,8.13
2018-07-23T04:59:42.413Z,9.77
2018-07-23T05:02:10.992Z,9.97
2018-07-23T05:04:39.543Z,8.83
2018-07-23T05:07:07.947Z,8.80
2018-07-23T05:09:36.357Z,10.80
2018-07-23T05:12:05.333Z,13.17
2018-07-23T05:14:34.007Z,12.37
2018-07-23T05:17:02.347Z,12.90
2018-07-23T05:19:31.045Z,11.00
2018-07-23T05:21:59.476Z,11.73
2018-07-23T05:24:27.927Z,11.03
2018-07-23T05:26:56.402Z,10.73
2018-07-23T05:29:24.873Z,11.83
2018-07-23T05:31:53.098Z,14.23
2018-07-23T05:34:21.533Z,11.53
2018-07-23T05:36:49.700Z,11.50
2018-07-23T05:39:18.225Z,11.07
2018-07-23T05:41:46.687Z,11.70
2018-07-23T05:44:14.859Z,12.73
2018-07-23T05:46:43.411Z,11.00
2018-07-23T05:49:11.896Z,12.47
2018-07-23T05:51:40.189Z,14.87
2018-07-23T05:54:08.336Z,13.00
2018-07-23T05:56:36.877Z,13.63
2018-07-23T05:59:05.808Z,13.70
2018-07-23T06:01:34.414Z,12.13
2018-07-23T06:04:04.118Z,14.00
2018-07-23T06:06:32.718Z,14.17
2018-07-23T06:09:01.460Z,14.67
2018-07-23T06:11:29.837Z,13.40
2018-07-23T06:13:58.345Z,15.80
2018-07-23T06:16:26.858Z,12.83
2018-07-23T06:18:54.971Z,18.23
2018-07-23T06:21:23.365Z,19.67
2018-07-23T06:23:51.913Z,15.80
2018-07-23T06:26:20.404Z,16.30
2018-07-23T06:28:48.765Z,16.77
2018-07-23T06:31:17.252Z,15.10
2018-07-23T06:33:45.714Z,13.73
2018-07-23T06:36:14.085Z,14.73
2018-07-23T06:38:42.464Z,17.00
2018-07-23T06:41:10.791Z,15.30
2018-07-23T06:43:39.151Z,20.20
2018-07-23T06:46:07.502Z,17.73
2018-07-23T06:48:35.936Z,17.80
2018-07-23T06:51:04.016Z,18.73
2018-07-23T06:53:32.432Z,18.93
2018-07-23T06:56:00.792Z,21.50
2018-07-23T06:58:29.189Z,20.27
2018-07-23T07:00:57.279Z,20.70
2018-07-23T07:03:25.720Z,20.47
2018-07-23T07:05:54.052Z,19.20
2018-07-23T07:08:22.439Z,20.27
2018-07-23T07:10:50.844Z,20.17
2018-07-23T07:13:19.200Z,22.77
2018-07-23T07:15:47.573Z,18.93
2018-07-23T07:18:15.880Z,18.50
2018-07-23T07:20:44.155Z,17.57
2018-07-23T07:23:12.476Z,17.03
2018-07-23T07:25:40.776Z,17.23
2018-07-23T07:28:09.100Z,18.57
2018-07-23T07:30:37.431Z,17.47
2018-07-23T07:33:06.040Z,18.60
2018-07-23T07:35:34.334Z,19.93
2018-07-23T07:38:02.696Z,20.43
2018-07-23T07:40:31.078Z,17.63
2018-07-23T07:42:59.399Z,16.40
2018-07-23T07:45:27.694Z,12.80
2018-07-23T07:47:56.001Z,13.10
2018-07-23T07:50:24.062Z,13.47
2018-07-23T07:52:52.348Z,13.30
2018-07-23T07:55:20.646Z,12.93
2018-07-23T07:57:48.944Z,13.53
2018-07-23T08:00:16.996Z,15.03
2018-07-23T08:02:45.362Z,13.43
2018-07-23T08:05:13.648Z,12.20
2018-07-23T08:07:41.942Z,12.60
2018-07-23T08:10:10.234Z,8.10
2018-07-23T08:12:38.638Z,7.13
2018-07-23T08:15:06.934Z,9.93
2018-07-23T08:17:35.255Z,7.83
2018-07-23T08:20:03.379Z,9.23
2018-07-23T08:22:31.687Z,8.40
2018-07-23T08:25:00.337Z,6.67
2018-07-23T08:27:28.648Z,10.23
2018-07-23T08:29:57.041Z,6.77
2018-07-23T08:32:25.435Z,8.20
2018-07-23T08:34:53.660Z,5.40
2018-07-23T08:37:21.963Z,4.33
2018-07-23T08:39:49.993Z,5.97
2018-07-23T08:42:18.352Z,4.47
2018-07-23T08:44:46.658Z,6.90
2018-07-23T08:47:14.974Z,5.87
2018-07-23T08:49:43.274Z,5.80
2018-07-23T08:52:11.559Z,5.00
2018-07-23T08:54:39.968Z,6.50
2018-07-23T08:57:08.899Z,4.97
2018-07-23T08:59:37.192Z,5.23
2018-07-23T09:02:05.224Z,4.67
2018-07-23T09:04:33.509Z,4.97
2018-07-23T09:07:01.816Z,5.57
2018-07-23T09:09:30.139Z,4.40
2018-07-23T09:11:58.766Z,4.70
2018-07-23T09:14:27.046Z,4.67
2018-07-23T09:16:55.377Z,4.53
2018-07-23T09:19:23.681Z,4.53
2018-07-23T09:21:52.041Z,4.40
2018-07-23T09:24:20.351Z,8.27
2018-07-23T09:26:48.614Z,5.60
2018-07-23T09:29:16.914Z,4.90
2018-07-23T09:31:45.194Z,6.43
2018-07-23T09:34:13.563Z,5.80
2018-07-23T09:36:41.830Z,5.20
2018-07-23T09:39:10.682Z,6.03
2018-07-23T09:41:38.981Z,5.60
2018-07-23T09:44:07.280Z,5.30
2018-07-23T09:46:35.576Z,3.43
2018-07-23T09:49:03.905Z,6.27
2018-07-23T09:51:32.277Z,3.80
2018-07-23T09:54:00.313Z,3.60
2018-07-23T09:56:28.619Z,2.83
2018-07-23T09:58:56.927Z,5.03
2018-07-23T10:01:25.251Z,3.00
2018-07-23T10:03:53.544Z,4.90
2018-07-23T10:06:22.099Z,4.23
2018-07-23T10:08:50.371Z,3.30
2018-07-23T10:11:18.662Z,2.70
2018-07-23T10:13:46.952Z,2.13
2018-07-23T10:16:15.220Z,2.53
2018-07-23T10:18:43.560Z,2.17
2018-07-23T10:21:11.857Z,2.03
2018-07-23T10:23:40.137Z,3.57
2018-07-23T10:26:08.135Z,2.10
2018-07-23T10:28:36.431Z,2.23
2018-07-23T10:31:04.705Z,2.97
2018-07-23T10:33:33.084Z,2.00
2018-07-23T10:36:01.176Z,2.13
2018-07-23T10:38:29.435Z,2.67
2018-07-23T10:40:57.738Z,2.70
2018-07-23T10:43:26.033Z,2.27
2018-07-23T10:45:54.056Z,1.60
2018-07-23T10:48:22.315Z,2.00
2018-07-23T10:50:50.636Z,2.67
2018-07-23T10:53:18.916Z,3.13
2018-07-23T10:55:47.196Z,2.07
2018-07-23T10:58:15.458Z,1.77
2018-07-23T11:00:43.500Z,3.10
2018-07-23T11:03:11.914Z,3.27
2018-07-23T11:05:40.275Z,2.47
2018-07-23T11:08:08.600Z,2.47
2018-07-23T11:10:37.595Z,2.40
2018-07-23T11:13:05.948Z,2.90
2018-07-23T11:18:37.734Z,3.07
2018-07-23T11:21:06.015Z,2.80
2018-07-23T11:23:34.350Z,2.20
2018-07-23T11:26:02.618Z,3.10
2018-07-23T11:28:30.910Z,3.30
2018-07-23T11:30:59.195Z,2.87
2018-07-23T11:33:27.459Z,3.00
2018-07-23T11:35:55.828Z,2.30
2018-07-23T11:38:23.831Z,2.40
2018-07-23T11:40:52.109Z,3.03
2018-07-23T11:43:20.386Z,2.33
2018-07-23T11:45:48.654Z,3.50
2018-07-23T11:48:16.915Z,4.37
2018-07-23T11:50:45.327Z,2.40
2018-07-23T11:53:13.830Z,4.17
2018-07-23T11:55:42.125Z,2.60
2018-07-23T11:58:10.405Z,2.50
2018-07-23T12:00:38.715Z,2.67
2018-07-23T12:03:06.771Z,2.87
2018-07-23T12:05:35.109Z,3.00
2018-07-23T12:08:03.401Z,4.47
2018-07-23T12:10:31.712Z,2.80
2018-07-23T12:13:00.027Z,3.47
2018-07-23T12:15:28.342Z,2.77
2018-07-23T12:17:56.644Z,3.27
2018-07-23T12:20:24.960Z,3.33
2018-07-23T12:22:53.265Z,3.50
2018-07-23T12:25:21.564Z,2.90
2018-07-23T12:27:49.840Z,3.83
2018-07-23T12:30:18.268Z,2.47
2018-07-23T12:32:46.539Z,2.90
2018-07-23T12:35:14.800Z,3.30
2018-07-23T12:37:43.052Z,2.47
2018-07-23T12:40:11.316Z,3.40
2018-07-23T12:42:39.867Z,4.00
2018-07-23T12:45:08.198Z,5.07
2018-07-23T12:47:36.465Z,2.97
2018-07-23T12:50:05.737Z,3.20
2018-07-23T12:52:34.074Z,5.00
2018-07-23T12:55:02.341Z,3.97
2018-07-23T12:57:30.612Z,3.57
2018-07-23T12:59:59.043Z,5.37
2018-07-23T13:02:27.261Z,3.17
2018-07-23T13:04:55.260Z,3.93
2018-07-23T13:07:23.568Z,4.57
2018-07-23T13:09:52.434Z,2.93
2018-07-23T13:12:20.483Z,2.80
2018-07-23T13:14:48.784Z,3.50
2018-07-23T13:17:17.081Z,3.00
2018-07-23T13:19:45.106Z,4.33
2018-07-23T13:22:13.369Z,4.33
2018-07-23T13:24:41.651Z,3.77
2018-07-23T13:27:09.652Z,3.30
2018-07-23T13:29:40.221Z,3.40
2018-07-23T13:32:08.495Z,3.43
2018-07-23T13:34:36.783Z,3.87
2018-07-23T13:37:05.273Z,2.93
2018-07-23T13:39:33.561Z,4.30
2018-07-23T13:42:01.825Z,3.63
2018-07-23T13:44:30.088Z,4.17
2018-07-23T13:46:58.381Z,5.60
2018-07-23T13:49:26.632Z,4.13
2018-07-23T13:51:55.159Z,3.00
2018-07-23T13:54:25.437Z,3.30
2018-07-23T13:56:53.434Z,4.93
2018-07-23T13:59:23.163Z,4.23
2018-07-23T14:01:51.461Z,3.67
2018-07-23T14:04:19.715Z,3.40
2018-07-23T14:06:48.033Z,3.20
2018-07-23T14:09:16.336Z,3.70
2018-07-23T14:11:44.600Z,5.30
2018-07-23T14:14:12.872Z,3.80
2018-07-23T14:16:41.144Z,4.20
2018-07-23T14:19:09.148Z,4.43
2018-07-23T14:21:37.405Z,2.90
2018-07-23T14:24:05.753Z,3.33
2018-07-23T14:26:34.024Z,4.40
2018-07-23T14:29:02.317Z,5.00
2018-07-23T14:31:30.651Z,4.50
2018-07-23T14:33:58.912Z,3.73
2018-07-23T14:36:29.137Z,3.27
2018-07-23T14:38:57.459Z,3.77
2018-07-23T14:41:25.748Z,3.23
2018-07-23T14:43:54.105Z,3.00
2018-07-23T14:46:22.344Z,3.27
2018-07-23T14:48:50.339Z,4.93
2018-07-23T14:51:18.613Z,4.37
2018-07-23T14:53:46.670Z,3.37
2018-07-23T14:56:15.067Z,4.47
2018-07-23T14:58:43.349Z,3.20
2018-07-23T15:01:11.681Z,4.97
2018-07-23T15:03:39.968Z,4.07
2018-07-23T15:06:07.967Z,3.27
2018-07-23T15:08:36.345Z,3.47
2018-07-23T15:11:04.623Z,4.03
2018-07-23T15:13:32.938Z,3.13
2018-07-23T15:16:01.196Z,6.30
2018-07-23T15:18:29.484Z,5.60
2018-07-23T15:20:57.752Z,6.27
2018-07-23T15:23:26.080Z,4.27
2018-07-23T15:25:54.367Z,5.10
2018-07-23T15:28:22.849Z,6.57
2018-07-23T15:30:50.879Z,4.00
2018-07-23T15:33:19.167Z,5.93
2018-07-23T15:35:47.445Z,5.37
2018-07-23T15:38:15.776Z,5.27
2018-07-23T15:40:44.049Z,5.17
2018-07-23T15:43:12.344Z,8.37
2018-07-23T15:45:40.715Z,8.50
2018-07-23T15:48:08.988Z,5.60
2018-07-23T15:50:37.261Z,7.67
2018-07-23T15:53:05.703Z,7.70
2018-07-23T15:55:33.967Z,6.43
2018-07-23T15:58:02.530Z,7.73
2018-07-23T16:00:30.812Z,5.80
2018-07-23T16:02:59.071Z,8.37
2018-07-23T16:05:27.575Z,6.20
2018-07-23T16:07:55.928Z,5.67
2018-07-23T16:10:24.229Z,6.47
2018-07-23T16:12:52.491Z,5.77
2018-07-23T16:15:20.759Z,6.83
2018-07-23T16:17:49.061Z,4.50
2018-07-23T16:20:17.316Z,4.27
2018-07-23T16:22:45.333Z,6.80
2018-07-23T16:25:13.647Z,4.77
2018-07-23T16:27:42.284Z,5.07
2018-07-23T16:30:13.559Z,4.97
2018-07-23T16:32:45.239Z,5.87
2018-07-23T16:35:36.463Z,7.03
2018-07-23T16:38:04.546Z,4.63
2018-07-23T16:40:32.854Z,6.13
2018-07-23T16:43:01.120Z,7.80
2018-07-23T16:45:29.414Z,6.80
2018-07-23T16:47:57.669Z,4.27
2018-07-23T16:50:25.673Z,5.10
2018-07-23T16:52:53.998Z,5.20
2018-07-23T16:55:22.273Z,4.53
2018-07-23T16:57:50.545Z,4.43
2018-07-23T17:00:18.776Z,6.70
2018-07-23T17:02:47.039Z,5.33
2018-07-23T17:05:15.301Z,3.97
2018-07-23T17:07:43.655Z,4.90
2018-07-23T17:10:11.925Z,4.20
2018-07-23T17:12:40.261Z,5.83
2018-07-23T17:15:08.283Z,4.13
2018-07-23T17:17:36.599Z,3.53
2018-07-23T17:20:05.568Z,3.27
2018-07-23T17:22:33.867Z,4.73
2018-07-23T17:25:02.208Z,4.13
2018-07-23T17:27:30.800Z,6.00
2018-07-23T17:29:59.167Z,4.53
2018-07-23T17:32:27.455Z,5.43
2018-07-23T17:34:55.798Z,5.67
2018-07-23T17:37:24.085Z,4.93
2018-07-23T17:39:52.397Z,4.77
2018-07-23T17:42:20.657Z,4.33
2018-07-23T17:44:48.943Z,5.77
2018-07-23T17:47:17.207Z,3.83
2018-07-23T17:49:45.451Z,4.10
2018-07-23T17:52:13.727Z,4.97
2018-07-23T17:54:42.088Z,4.97
2018-07-23T17:57:10.082Z,3.87
2018-07-23T17:59:38.367Z,6.20
2018-07-23T18:02:07.348Z,5.13
2018-07-23T18:04:35.403Z,4.67
2018-07-23T18:07:03.658Z,4.77
2018-07-23T18:09:31.928Z,6.30
2018-07-23T18:12:00.193Z,5.77
2018-07-23T18:14:28.461Z,5.63
2018-07-23T18:16:56.759Z,5.10
2018-07-23T18:19:25.080Z,3.40
2018-07-23T18:21:53.755Z,4.43
2018-07-23T18:24:22.035Z,4.27
2018-07-23T18:26:50.295Z,4.73
2018-07-23T18:29:18.621Z,4.90
2018-07-23T18:31:46.879Z,5.53
2018-07-23T18:34:15.179Z,4.77
2018-07-23T18:36:43.437Z,5.20
2018-07-23T18:39:12.847Z,7.43
2018-07-23T18:41:41.759Z,4.63
2018-07-23T18:44:10.241Z,4.50
2018-07-23T18:46:39.524Z,4.37
2018-07-23T18:49:14.515Z,3.83
2018-07-23T18:51:48.637Z,3.57
2018-07-23T18:54:17.371Z,4.57
2018-07-23T18:56:49.295Z,3.43
2018-07-23T18:59:17.663Z,3.83
2018-07-23T19:01:46.523Z,3.97
2018-07-23T19:04:14.864Z,4.20
2018-07-23T19:06:43.139Z,4.33
2018-07-23T19:09:13.280Z,4.93
2018-07-23T19:11:42.347Z,3.80
2018-07-23T19:14:10.896Z,5.63
2018-07-23T19:16:39.918Z,5.10
2018-07-23T19:19:08.186Z,4.73
2018-07-23T19:21:36.531Z,4.30
2018-07-23T19:24:11.332Z,6.30
2018-07-23T19:26:39.704Z,4.83
2018-07-23T19:29:08.017Z,4.43
2018-07-23T19:31:36.314Z,4.40
2018-07-23T19:34:05.211Z,3.93
2018-07-23T19:36:33.528Z,6.17
2018-07-23T19:39:02.139Z,4.73
2018-07-23T19:41:30.975Z,5.20
2018-07-23T19:43:59.239Z,4.73
2018-07-23T19:46:27.262Z,4.10
2018-07-23T19:48:55.566Z,4.87
2018-07-23T19:51:23.820Z,4.90
2018-07-23T19:53:52.154Z,7.00
2018-07-23T19:56:23.526Z,7.57
2018-07-23T19:58:51.820Z,4.80
2018-07-23T20:01:20.072Z,8.07
2018-07-23T20:03:48.336Z,5.33
2018-07-23T20:06:20.568Z,6.00
2018-07-23T20:08:49.754Z,4.23
2018-07-23T20:11:18.261Z,4.77
2018-07-23T20:13:46.534Z,5.50
2018-07-23T20:16:14.819Z,5.30
2018-07-23T20:18:43.206Z,5.50
2018-07-23T20:21:11.538Z,4.07
2018-07-23T20:23:39.841Z,5.30
2018-07-23T20:26:08.352Z,5.40
2018-07-23T20:32:19.392Z,6.33
2018-07-23T20:34:47.679Z,5.07
2018-07-23T20:37:15.679Z,4.90
2018-07-23T20:39:43.994Z,6.40
2018-07-23T20:42:12.340Z,8.53
2018-07-23T20:44:40.673Z,7.10
2018-07-23T20:47:08.905Z,5.00
2018-07-23T20:49:36.913Z,6.53
2018-07-23T20:52:05.179Z,5.30
2018-07-23T20:54:33.175Z,7.83
2018-07-23T20:57:01.469Z,6.13
2018-07-23T20:59:29.733Z,5.50
2018-07-23T21:01:58.055Z,5.87
2018-07-23T21:04:26.449Z,5.37
2018-07-23T21:06:54.468Z,5.70
2018-07-23T21:09:22.796Z,5.27
2018-07-23T21:11:51.102Z,4.23
2018-07-23T21:14:19.411Z,4.87
2018-07-23T21:16:47.766Z,7.30
2018-07-23T21:19:16.102Z,4.70
2018-07-23T21:21:44.428Z,4.70
2018-07-23T21:24:12.687Z,5.10
2018-07-23T21:26:41.007Z,5.00
2018-07-23T21:29:09.022Z,4.00
2018-07-23T21:31:37.309Z,4.20
2018-07-23T21:34:05.726Z,5.87
2018-07-23T21:36:34.100Z,4.90
2018-07-23T21:39:02.457Z,4.90
2018-07-23T21:41:30.512Z,4.23
2018-07-23T21:43:58.775Z,4.43
2018-07-23T21:46:27.122Z,4.10
2018-07-23T21:48:55.459Z,4.73
2018-07-23T21:51:23.772Z,5.67
2018-07-23T21:53:52.084Z,4.83
2018-07-23T21:56:20.101Z,5.40
2018-07-23T21:58:48.416Z,5.00
2018-07-23T22:01:16.699Z,4.53
2018-07-23T22:03:44.969Z,3.97
2018-07-23T22:06:13.311Z,4.07
2018-07-23T22:08:41.568Z,8.17
2018-07-23T22:11:09.859Z,5.90
2018-07-23T22:13:38.136Z,4.27
2018-07-23T22:16:06.439Z,4.70
2018-07-23T22:18:34.715Z,4.37
2018-07-23T22:21:03.343Z,4.20
2018-07-23T22:23:31.612Z,4.97
2018-07-23T22:25:59.907Z,4.93
2018-07-23T22:28:28.287Z,4.27
2018-07-23T22:30:56.639Z,6.53
2018-07-23T22:33:25.015Z,5.10
2018-07-23T22:35:53.319Z,4.87
2018-07-23T22:38:21.730Z,5.23
2018-07-23T22:40:49.991Z,4.73
2018-07-23T22:43:18.323Z,5.13
2018-07-23T22:45:47.307Z,6.03
2018-07-23T22:48:15.612Z,4.83
2018-07-23T22:50:43.931Z,4.70
2018-07-23T22:53:12.200Z,4.70
2018-07-23T22:55:40.503Z,5.20
2018-07-23T22:58:09.471Z,5.20
2018-07-23T23:00:37.747Z,5.80
2018-07-23T23:03:06.059Z,4.40
2018-07-23T23:05:34.356Z,4.70
2018-07-23T23:08:02.635Z,6.33
2018-07-23T23:10:30.925Z,6.33
2018-07-23T23:12:59.215Z,6.43
2018-07-23T23:15:27.527Z,5.83
2018-07-23T23:17:56.137Z,5.63
2018-07-23T23:20:24.439Z,6.23
2018-07-23T23:22:52.718Z,5.20
2018-07-23T23:25:21.024Z,5.60
2018-07-23T23:27:49.289Z,6.90
2018-07-23T23:30:17.578Z,5.93
2018-07-23T23:32:45.851Z,5.90
2018-07-23T23:35:14.188Z,5.67
2018-07-23T23:37:42.446Z,5.07
2018-07-23T23:40:10.699Z,6.10
2018-07-23T23:42:38.972Z,5.30
2018-07-23T23:45:07.237Z,5.27
2018-07-23T23:47:35.509Z,7.10
2018-07-23T23:50:04.206Z,5.97
2018-07-23T23:52:32.488Z,5.57
2018-07-23T23:55:00.752Z,5.17
2018-07-23T23:57:29.015Z,6.63
2018-07-23T23:59:57.303Z,6.07
